Pagrindinis puslapis
METAR-TAF:

METAR-TAF

Oro uostai :

Westerland, Vokietija

platuma: 54-55N, ilguma: 008-21E, Aukštis: 16 m

Dabartinis oras

Ataskaita buvo paskelbta 11 valandos ir 48 minutes, ne 17:20 UTC
Vėjas 1 kt nuo kintamojo kryptimis
Temperatūra 2°C
Slėgis 997 hPa
Matomumas 10 km arba daugiau
Išsisklaidę debesys ne aukštis 1300 ft

METAR: EDXW 271720Z VRB01KT 9999 SCT013 02/// Q0997 RERA

Laikas: 06:08 (05:08 UTC)

Prognozė

Ataskaita buvo paskelbta 15 valandos ir 8 minutes, ne 14:00 UTC
Prognozė galioja nuo 27 metu 15 UTC su 27 metu 18 UTC
Vėjas 10 kt iš Vakarų/Pietvakarių
Matomumas 10 km arba daugiau
Išsisklaidę debesys ne aukštis 2000 ft
Tikimybė 30% :
Laikinai
nuo 27 metu 15 UTC su 27 metu 18 UTC
Su prošvaistėmis ne aukštis 1100 ft, Liūtiniai kamuoliniai debesys.
lietus

TAF: EDXW 271400Z 2715/2718 24010KT 9999 SCT020 PROB30 TEMPO 2715/2718 SHRA BKN011CB

Orai ataskaitas ir orų prognozės (METAR, TAF).

turimą stotys yra geltonos ir raudonos taškus žemėlapyje.

Perkelti pele per norėdami pamatyti stoties vardą.

Tada spustelėkite, norėdami matyti oro stebėjimo ir prognozės.

Norėdami pakeisti žemėlapį: spustelėkite ant žalios mygtukų su juodo kryžiaus žemyn,; žalią mygtuką su brūkšneliu, jei norite nutolinti; arba žalių rodyklių gretimoms žemėlapius.


METAR-TAF: